sensor_id;sensor_type;location;lat;lon;timestamp;temperature;humidity
28725;DHT22;43472;48.980;9.646;2024-02-04T00:03:04;8.70;99.90
28725;DHT22;43472;48.980;9.646;2024-02-04T00:08:08;8.80;99.90
28725;DHT22;43472;48.980;9.646;2024-02-04T00:13:10;8.80;99.90
28725;DHT22;43472;48.980;9.646;2024-02-04T00:18:12;8.60;99.90
28725;DHT22;43472;48.980;9.646;2024-02-04T00:23:15;8.70;99.90
28725;DHT22;43472;48.980;9.646;2024-02-04T00:28:17;8.70;99.90
28725;DHT22;43472;48.980;9.646;2024-02-04T00:33:20;8.70;99.90
28725;DHT22;43472;48.980;9.646;2024-02-04T00:38:23;8.90;99.90
28725;DHT22;43472;48.980;9.646;2024-02-04T00:43:25;8.90;99.90
28725;DHT22;43472;48.980;9.646;2024-02-04T00:48:27;9.00;99.90
28725;DHT22;43472;48.980;9.646;2024-02-04T00:53:29;9.10;99.90
28725;DHT22;43472;48.980;9.646;2024-02-04T00:58:35;9.10;99.90
28725;DHT22;43472;48.980;9.646;2024-02-04T01:03:38;9.00;99.90
28725;DHT22;43472;48.980;9.646;2024-02-04T01:08:45;8.80;99.90
28725;DHT22;43472;48.980;9.646;2024-02-04T01:13:47;9.10;99.90
28725;DHT22;43472;48.980;9.646;2024-02-04T01:18:49;9.00;99.90
28725;DHT22;43472;48.980;9.646;2024-02-04T01:23:51;9.00;99.90
28725;DHT22;43472;48.980;9.646;2024-02-04T01:28:53;8.80;99.90
28725;DHT22;43472;48.980;9.646;2024-02-04T01:33:56;8.90;99.90
28725;DHT22;43472;48.980;9.646;2024-02-04T01:38:58;8.90;99.90
28725;DHT22;43472;48.980;9.646;2024-02-04T01:44:00;8.90;99.90
28725;DHT22;43472;48.980;9.646;2024-02-04T01:49:02;9.00;99.90
28725;DHT22;43472;48.980;9.646;2024-02-04T01:54:07;9.10;99.90
28725;DHT22;43472;48.980;9.646;2024-02-04T01:59:10;9.00;99.90
28725;DHT22;43472;48.980;9.646;2024-02-04T02:04:14;9.00;99.90
28725;DHT22;43472;48.980;9.646;2024-02-04T02:09:16;9.00;99.90
28725;DHT22;43472;48.980;9.646;2024-02-04T02:14:22;8.90;99.90
28725;DHT22;43472;48.980;9.646;2024-02-04T02:19:44;8.80;99.90
28725;DHT22;43472;48.980;9.646;2024-02-04T02:24:57;8.80;99.90
28725;DHT22;43472;48.980;9.646;2024-02-04T02:30:01;8.80;99.90
28725;DHT22;43472;48.980;9.646;2024-02-04T02:35:03;8.80;99.90
28725;DHT22;43472;48.980;9.646;2024-02-04T02:40:10;8.90;99.90
28725;DHT22;43472;48.980;9.646;2024-02-04T02:45:16;8.80;99.90
28725;DHT22;43472;48.980;9.646;2024-02-04T02:50:20;8.90;99.90
28725;DHT22;43472;48.980;9.646;2024-02-04T02:55:23;8.80;99.90
28725;DHT22;43472;48.980;9.646;2024-02-04T03:00:25;8.80;99.90
28725;DHT22;43472;48.980;9.646;2024-02-04T03:05:27;8.80;99.90
28725;DHT22;43472;48.980;9.646;2024-02-04T03:10:29;8.90;99.90
28725;DHT22;43472;48.980;9.646;2024-02-04T03:15:32;8.60;99.90
28725;DHT22;43472;48.980;9.646;2024-02-04T03:20:34;8.80;99.90
28725;DHT22;43472;48.980;9.646;2024-02-04T03:25:36;8.80;99.90
28725;DHT22;43472;48.980;9.646;2024-02-04T03:30:38;9.00;99.90
28725;DHT22;43472;48.980;9.646;2024-02-04T03:35:40;8.90;99.90
28725;DHT22;43472;48.980;9.646;2024-02-04T03:40:42;8.60;99.90
28725;DHT22;43472;48.980;9.646;2024-02-04T03:45:45;8.60;99.90
28725;DHT22;43472;48.980;9.646;2024-02-04T03:50:47;8.80;99.90
28725;DHT22;43472;48.980;9.646;2024-02-04T03:55:50;8.80;99.90
28725;DHT22;43472;48.980;9.646;2024-02-04T04:00:52;8.50;99.90
28725;DHT22;43472;48.980;9.646;2024-02-04T04:05:54;8.50;99.90
28725;DHT22;43472;48.980;9.646;2024-02-04T04:10:57;8.80;99.90
28725;DHT22;43472;48.980;9.646;2024-02-04T04:15:59;8.90;99.90
28725;DHT22;43472;48.980;9.646;2024-02-04T04:21:02;8.70;99.90
28725;DHT22;43472;48.980;9.646;2024-02-04T04:26:04;8.90;99.90
28725;DHT22;43472;48.980;9.646;2024-02-04T04:31:07;8.80;99.90
28725;DHT22;43472;48.980;9.646;2024-02-04T04:36:09;8.90;99.90
28725;DHT22;43472;48.980;9.646;2024-02-04T04:41:11;8.80;99.90
28725;DHT22;43472;48.980;9.646;2024-02-04T04:46:13;8.90;99.90
28725;DHT22;43472;48.980;9.646;2024-02-04T04:51:15;8.80;99.90
28725;DHT22;43472;48.980;9.646;2024-02-04T04:56:17;8.90;99.90
28725;DHT22;43472;48.980;9.646;2024-02-04T05:01:19;8.70;99.90
28725;DHT22;43472;48.980;9.646;2024-02-04T05:06:21;8.50;99.90
28725;DHT22;43472;48.980;9.646;2024-02-04T05:11:24;8.70;99.90
28725;DHT22;43472;48.980;9.646;2024-02-04T05:16:26;8.60;99.90
28725;DHT22;43472;48.980;9.646;2024-02-04T05:21:28;8.70;99.90
28725;DHT22;43472;48.980;9.646;2024-02-04T05:26:30;8.90;99.90
28725;DHT22;43472;48.980;9.646;2024-02-04T05:31:33;8.90;99.90
28725;DHT22;43472;48.980;9.646;2024-02-04T05:36:37;8.90;99.90
28725;DHT22;43472;48.980;9.646;2024-02-04T05:41:40;9.00;99.90
28725;DHT22;43472;48.980;9.646;2024-02-04T05:46:42;9.10;99.90
28725;DHT22;43472;48.980;9.646;2024-02-04T05:51:44;9.00;99.90
28725;DHT22;43472;48.980;9.646;2024-02-04T05:56:49;8.80;99.90
28725;DHT22;43472;48.980;9.646;2024-02-04T06:01:52;8.70;99.90
28725;DHT22;43472;48.980;9.646;2024-02-04T06:06:55;8.60;99.90
28725;DHT22;43472;48.980;9.646;2024-02-04T06:11:57;8.70;99.90
28725;DHT22;43472;48.980;9.646;2024-02-04T06:17:00;8.60;99.90
28725;DHT22;43472;48.980;9.646;2024-02-04T06:22:02;8.60;99.90
28725;DHT22;43472;48.980;9.646;2024-02-04T06:27:04;8.50;99.90
28725;DHT22;43472;48.980;9.646;2024-02-04T06:32:06;8.40;99.90
28725;DHT22;43472;48.980;9.646;2024-02-04T06:37:09;8.50;99.90
28725;DHT22;43472;48.980;9.646;2024-02-04T06:42:10;8.50;99.90
28725;DHT22;43472;48.980;9.646;2024-02-04T06:47:13;8.50;99.90
28725;DHT22;43472;48.980;9.646;2024-02-04T06:52:16;8.50;99.90
28725;DHT22;43472;48.980;9.646;2024-02-04T06:57:20;8.40;99.90
28725;DHT22;43472;48.980;9.646;2024-02-04T07:02:23;8.50;99.90
28725;DHT22;43472;48.980;9.646;2024-02-04T07:07:25;8.40;99.90
28725;DHT22;43472;48.980;9.646;2024-02-04T07:12:27;8.50;99.90
28725;DHT22;43472;48.980;9.646;2024-02-04T07:17:28;8.30;99.90
28725;DHT22;43472;48.980;9.646;2024-02-04T07:22:31;8.20;99.90
28725;DHT22;43472;48.980;9.646;2024-02-04T07:27:36;8.10;99.90
28725;DHT22;43472;48.980;9.646;2024-02-04T07:32:39;8.90;99.90
28725;DHT22;43472;48.980;9.646;2024-02-04T07:37:43;8.40;99.90
28725;DHT22;43472;48.980;9.646;2024-02-04T07:42:45;8.00;99.90
28725;DHT22;43472;48.980;9.646;2024-02-04T07:47:48;8.00;99.90
28725;DHT22;43472;48.980;9.646;2024-02-04T07:52:51;8.20;99.90
28725;DHT22;43472;48.980;9.646;2024-02-04T07:57:53;8.20;99.90
28725;DHT22;43472;48.980;9.646;2024-02-04T08:02:56;8.30;99.90
28725;DHT22;43472;48.980;9.646;2024-02-04T08:07:58;8.50;99.90
28725;DHT22;43472;48.980;9.646;2024-02-04T08:13:04;8.70;99.90
28725;DHT22;43472;48.980;9.646;2024-02-04T08:18:06;8.50;99.90
28725;DHT22;43472;48.980;9.646;2024-02-04T08:23:09;8.50;99.90
28725;DHT22;43472;48.980;9.646;2024-02-04T08:28:11;8.40;99.90
28725;DHT22;43472;48.980;9.646;2024-02-04T08:33:14;8.60;99.90
28725;DHT22;43472;48.980;9.646;2024-02-04T08:38:16;8.60;99.90
28725;DHT22;43472;48.980;9.646;2024-02-04T08:43:20;10.10;99.90
28725;DHT22;43472;48.980;9.646;2024-02-04T08:48:22;8.60;99.90
28725;DHT22;43472;48.980;9.646;2024-02-04T08:53:24;8.70;99.90
28725;DHT22;43472;48.980;9.646;2024-02-04T08:58:26;8.80;99.90
28725;DHT22;43472;48.980;9.646;2024-02-04T09:03:28;8.70;99.90
28725;DHT22;43472;48.980;9.646;2024-02-04T09:08:31;9.00;99.90
28725;DHT22;43472;48.980;9.646;2024-02-04T09:13:34;9.00;99.90
28725;DHT22;43472;48.980;9.646;2024-02-04T09:18:37;9.10;99.90
28725;DHT22;43472;48.980;9.646;2024-02-04T09:23:39;9.10;99.90
28725;DHT22;43472;48.980;9.646;2024-02-04T09:28:42;8.50;99.90
28725;DHT22;43472;48.980;9.646;2024-02-04T09:33:44;8.70;99.90
28725;DHT22;43472;48.980;9.646;2024-02-04T09:38:47;8.90;99.90
28725;DHT22;43472;48.980;9.646;2024-02-04T09:44:05;9.00;99.90
28725;DHT22;43472;48.980;9.646;2024-02-04T09:49:09;9.00;99.90
28725;DHT22;43472;48.980;9.646;2024-02-04T09:54:15;8.90;99.90
28725;DHT22;43472;48.980;9.646;2024-02-04T09:59:19;9.00;99.90
28725;DHT22;43472;48.980;9.646;2024-02-04T10:04:21;9.10;99.90
28725;DHT22;43472;48.980;9.646;2024-02-04T10:09:26;10.80;99.90
28725;DHT22;43472;48.980;9.646;2024-02-04T10:14:28;9.30;99.90
28725;DHT22;43472;48.980;9.646;2024-02-04T10:19:30;10.70;99.90
28725;DHT22;43472;48.980;9.646;2024-02-04T10:24:33;10.20;99.90
28725;DHT22;43472;48.980;9.646;2024-02-04T10:29:36;9.60;99.90
28725;DHT22;43472;48.980;9.646;2024-02-04T10:34:38;9.40;99.90
28725;DHT22;43472;48.980;9.646;2024-02-04T10:39:40;9.40;99.90
28725;DHT22;43472;48.980;9.646;2024-02-04T10:44:42;9.50;99.90
28725;DHT22;43472;48.980;9.646;2024-02-04T10:49:50;9.30;99.90
28725;DHT22;43472;48.980;9.646;2024-02-04T10:54:53;9.50;99.90
28725;DHT22;43472;48.980;9.646;2024-02-04T10:59:59;9.50;99.90
28725;DHT22;43472;48.980;9.646;2024-02-04T11:05:04;9.50;99.90
28725;DHT22;43472;48.980;9.646;2024-02-04T11:10:08;9.50;99.90
28725;DHT22;43472;48.980;9.646;2024-02-04T11:15:13;9.60;99.90
28725;DHT22;43472;48.980;9.646;2024-02-04T11:25:49;9.50;99.90
28725;DHT22;43472;48.980;9.646;2024-02-04T11:30:55;9.50;99.90
28725;DHT22;43472;48.980;9.646;2024-02-04T11:36:07;9.40;99.90
28725;DHT22;43472;48.980;9.646;2024-02-04T11:41:22;9.50;99.90
28725;DHT22;43472;48.980;9.646;2024-02-04T11:46:32;9.60;99.90
28725;DHT22;43472;48.980;9.646;2024-02-04T11:51:38;9.50;99.90
28725;DHT22;43472;48.980;9.646;2024-02-04T11:56:40;9.50;99.90
28725;DHT22;43472;48.980;9.646;2024-02-04T12:01:42;9.70;99.90
28725;DHT22;43472;48.980;9.646;2024-02-04T12:06:44;9.90;99.90
28725;DHT22;43472;48.980;9.646;2024-02-04T12:11:47;10.00;99.90
28725;DHT22;43472;48.980;9.646;2024-02-04T12:16:49;10.10;99.90
28725;DHT22;43472;48.980;9.646;2024-02-04T12:21:52;10.10;99.90
28725;DHT22;43472;48.980;9.646;2024-02-04T12:26:57;9.90;99.90
28725;DHT22;43472;48.980;9.646;2024-02-04T12:32:02;10.40;99.90
28725;DHT22;43472;48.980;9.646;2024-02-04T12:37:06;10.60;99.90
28725;DHT22;43472;48.980;9.646;2024-02-04T12:42:08;10.50;99.90
28725;DHT22;43472;48.980;9.646;2024-02-04T12:47:10;10.70;99.90
28725;DHT22;43472;48.980;9.646;2024-02-04T12:52:13;10.80;99.90
28725;DHT22;43472;48.980;9.646;2024-02-04T12:57:23;10.50;99.90
28725;DHT22;43472;48.980;9.646;2024-02-04T13:02:26;10.50;99.90
28725;DHT22;43472;48.980;9.646;2024-02-04T13:07:29;10.10;99.90
28725;DHT22;43472;48.980;9.646;2024-02-04T13:12:31;10.20;99.90
28725;DHT22;43472;48.980;9.646;2024-02-04T13:17:36;10.40;99.90
28725;DHT22;43472;48.980;9.646;2024-02-04T13:22:40;10.00;99.90
28725;DHT22;43472;48.980;9.646;2024-02-04T13:27:42;9.90;99.90
28725;DHT22;43472;48.980;9.646;2024-02-04T13:32:44;10.00;99.90
28725;DHT22;43472;48.980;9.646;2024-02-04T13:37:48;9.90;99.90
28725;DHT22;43472;48.980;9.646;2024-02-04T13:42:53;10.00;99.90
28725;DHT22;43472;48.980;9.646;2024-02-04T13:47:55;9.90;99.90
28725;DHT22;43472;48.980;9.646;2024-02-04T13:52:58;11.50;99.90
28725;DHT22;43472;48.980;9.646;2024-02-04T13:58:00;10.10;99.90
28725;DHT22;43472;48.980;9.646;2024-02-04T14:03:03;9.80;99.90
28725;DHT22;43472;48.980;9.646;2024-02-04T14:08:07;10.00;99.90
28725;DHT22;43472;48.980;9.646;2024-02-04T14:13:09;10.50;99.90
28725;DHT22;43472;48.980;9.646;2024-02-04T14:18:13;9.80;99.90
28725;DHT22;43472;48.980;9.646;2024-02-04T14:23:15;10.00;99.90
28725;DHT22;43472;48.980;9.646;2024-02-04T14:28:17;9.60;99.90
28725;DHT22;43472;48.980;9.646;2024-02-04T14:33:20;9.80;99.90
28725;DHT22;43472;48.980;9.646;2024-02-04T14:38:22;9.90;99.90
28725;DHT22;43472;48.980;9.646;2024-02-04T14:43:25;9.90;99.90
28725;DHT22;43472;48.980;9.646;2024-02-04T14:48:27;9.90;99.90
28725;DHT22;43472;48.980;9.646;2024-02-04T14:53:31;9.90;99.90
28725;DHT22;43472;48.980;9.646;2024-02-04T14:58:36;10.00;99.90
28725;DHT22;43472;48.980;9.646;2024-02-04T15:03:38;10.00;99.90
28725;DHT22;43472;48.980;9.646;2024-02-04T15:08:41;10.10;99.90
28725;DHT22;43472;48.980;9.646;2024-02-04T15:13:44;10.00;99.90
28725;DHT22;43472;48.980;9.646;2024-02-04T15:18:47;9.90;99.90
28725;DHT22;43472;48.980;9.646;2024-02-04T15:23:49;9.90;99.90
28725;DHT22;43472;48.980;9.646;2024-02-04T15:28:52;9.70;99.90
28725;DHT22;43472;48.980;9.646;2024-02-04T15:33:55;10.00;99.90
28725;DHT22;43472;48.980;9.646;2024-02-04T15:38:57;10.00;99.90
28725;DHT22;43472;48.980;9.646;2024-02-04T15:44:00;10.00;99.90
28725;DHT22;43472;48.980;9.646;2024-02-04T15:49:02;9.90;99.90
28725;DHT22;43472;48.980;9.646;2024-02-04T15:54:06;10.00;99.90
28725;DHT22;43472;48.980;9.646;2024-02-04T15:59:09;9.80;99.90
28725;DHT22;43472;48.980;9.646;2024-02-04T16:04:13;9.90;99.90
28725;DHT22;43472;48.980;9.646;2024-02-04T16:09:18;9.90;99.90
28725;DHT22;43472;48.980;9.646;2024-02-04T16:14:23;9.90;99.90
28725;DHT22;43472;48.980;9.646;2024-02-04T16:19:26;9.80;99.90
28725;DHT22;43472;48.980;9.646;2024-02-04T16:24:29;9.90;99.90
28725;DHT22;43472;48.980;9.646;2024-02-04T16:29:31;9.90;99.90
28725;DHT22;43472;48.980;9.646;2024-02-04T16:34:34;9.70;99.90
28725;DHT22;43472;48.980;9.646;2024-02-04T16:39:38;9.90;99.90
28725;DHT22;43472;48.980;9.646;2024-02-04T16:44:42;9.80;99.90
28725;DHT22;43472;48.980;9.646;2024-02-04T16:49:44;9.90;99.90
28725;DHT22;43472;48.980;9.646;2024-02-04T16:54:47;9.90;99.90
28725;DHT22;43472;48.980;9.646;2024-02-04T16:59:49;9.90;99.90
28725;DHT22;43472;48.980;9.646;2024-02-04T17:04:52;9.80;99.90
28725;DHT22;43472;48.980;9.646;2024-02-04T17:09:54;9.90;99.90
28725;DHT22;43472;48.980;9.646;2024-02-04T17:14:58;10.00;99.90
28725;DHT22;43472;48.980;9.646;2024-02-04T17:25:10;9.90;99.90
28725;DHT22;43472;48.980;9.646;2024-02-04T17:30:24;10.00;99.90
28725;DHT22;43472;48.980;9.646;2024-02-04T17:35:26;9.70;99.90
28725;DHT22;43472;48.980;9.646;2024-02-04T17:40:31;10.10;99.90
28725;DHT22;43472;48.980;9.646;2024-02-04T17:45:53;9.80;99.90
28725;DHT22;43472;48.980;9.646;2024-02-04T17:50:55;9.90;99.90
28725;DHT22;43472;48.980;9.646;2024-02-04T17:56:17;9.80;99.90
28725;DHT22;43472;48.980;9.646;2024-02-04T18:01:23;9.90;99.90
28725;DHT22;43472;48.980;9.646;2024-02-04T18:06:27;9.90;99.90
28725;DHT22;43472;48.980;9.646;2024-02-04T18:11:29;9.80;99.90
28725;DHT22;43472;48.980;9.646;2024-02-04T18:16:31;9.70;99.90
28725;DHT22;43472;48.980;9.646;2024-02-04T18:21:33;9.90;99.90
28725;DHT22;43472;48.980;9.646;2024-02-04T18:26:36;9.60;99.90
28725;DHT22;43472;48.980;9.646;2024-02-04T18:31:37;9.80;99.90
28725;DHT22;43472;48.980;9.646;2024-02-04T18:36:39;9.80;99.90
28725;DHT22;43472;48.980;9.646;2024-02-04T18:41:42;10.30;99.90
28725;DHT22;43472;48.980;9.646;2024-02-04T18:46:47;9.90;99.90
28725;DHT22;43472;48.980;9.646;2024-02-04T18:51:49;9.90;99.90
28725;DHT22;43472;48.980;9.646;2024-02-04T18:56:51;9.80;99.90
28725;DHT22;43472;48.980;9.646;2024-02-04T19:01:54;9.70;99.90
28725;DHT22;43472;48.980;9.646;2024-02-04T19:06:56;7.70;99.90
28725;DHT22;43472;48.980;9.646;2024-02-04T19:12:02;9.70;99.90
28725;DHT22;43472;48.980;9.646;2024-02-04T19:17:07;9.60;99.90
28725;DHT22;43472;48.980;9.646;2024-02-04T19:22:13;9.60;99.90
28725;DHT22;43472;48.980;9.646;2024-02-04T19:27:15;10.00;99.90
28725;DHT22;43472;48.980;9.646;2024-02-04T19:32:19;9.70;99.90
28725;DHT22;43472;48.980;9.646;2024-02-04T19:37:22;9.70;99.90
28725;DHT22;43472;48.980;9.646;2024-02-04T19:42:25;9.70;99.90
28725;DHT22;43472;48.980;9.646;2024-02-04T19:47:27;9.80;99.90
28725;DHT22;43472;48.980;9.646;2024-02-04T19:52:29;9.60;99.90
28725;DHT22;43472;48.980;9.646;2024-02-04T19:57:33;9.60;99.90
28725;DHT22;43472;48.980;9.646;2024-02-04T20:02:36;9.70;99.90
28725;DHT22;43472;48.980;9.646;2024-02-04T20:07:38;9.60;99.90
28725;DHT22;43472;48.980;9.646;2024-02-04T20:12:40;9.60;99.90
28725;DHT22;43472;48.980;9.646;2024-02-04T20:17:42;9.50;99.90
28725;DHT22;43472;48.980;9.646;2024-02-04T20:22:45;9.60;99.90
28725;DHT22;43472;48.980;9.646;2024-02-04T20:27:48;11.30;99.90
28725;DHT22;43472;48.980;9.646;2024-02-04T20:32:50;9.60;99.90
28725;DHT22;43472;48.980;9.646;2024-02-04T20:37:53;9.80;99.90
28725;DHT22;43472;48.980;9.646;2024-02-04T20:42:58;9.60;99.90
28725;DHT22;43472;48.980;9.646;2024-02-04T20:48:00;9.90;99.90
28725;DHT22;43472;48.980;9.646;2024-02-04T20:53:03;9.70;99.90
28725;DHT22;43472;48.980;9.646;2024-02-04T22:20:33;9.50;99.90
28725;DHT22;43472;48.980;9.646;2024-02-04T22:25:35;9.30;99.90
28725;DHT22;43472;48.980;9.646;2024-02-04T22:35:41;9.40;99.90
28725;DHT22;43472;48.980;9.646;2024-02-04T22:40:43;9.40;99.90
28725;DHT22;43472;48.980;9.646;2024-02-04T22:50:49;9.30;99.90
28725;DHT22;43472;48.980;9.646;2024-02-04T23:16:07;9.50;99.90
28725;DHT22;43472;48.980;9.646;2024-02-04T23:21:10;9.40;99.90
28725;DHT22;43472;48.980;9.646;2024-02-04T23:26:13;9.90;99.90
28725;DHT22;43472;48.980;9.646;2024-02-04T23:31:15;9.40;99.90
28725;DHT22;43472;48.980;9.646;2024-02-04T23:41:20;9.10;99.90
28725;DHT22;43472;48.980;9.646;2024-02-04T23:46:23;9.10;99.90
28725;DHT22;43472;48.980;9.646;2024-02-04T23:51:25;9.00;99.90
28725;DHT22;43472;48.980;9.646;2024-02-04T23:56:27;9.00;99.90
